»·PEaware :: DLH250 KLAX-EDDF

DLH250 :: KLAX-EDDF

FLIGHT INFORMATION

Flight Status: Arrived
Operator:
Lufthansa
More flights by this operator :: More flights under this callsign
Pilot: Andrew J. (13363)
Aircraft: Unknown
(A359)
More flights by this aircraft type
Origin: KLAX Los Angeles Intl
United States
Destination: EDDF Frankfurt/Main
Germany
More flights between these airports :: More routes between these airports
Route: OSHNN8 BEALE Q842 WINEN FFU MLS ISN YNE YGX 59N090W 62N080W 6330N07000W MUSVA CLAVY 64N050W 63N040W 62N030W 61N020W ATSIX UP60 AKIVO UL619 CUTEL L7 VENAS L74 TOPPA AMGOD SOGPO DIXAT T149 LIPMI T911 ROLIS ROLIS2H
File this flight plan on PilotEdge
Remarks:
Altitude:
(Current/Filed)
35,000ft
Speed:
(Current/Filed)
496kts
Departed: 20-Sep-20 09:33 PM
Arrived: 21-Sep-20 08:22 AM
Distance/Time
Traveled:
5030nm/10:49
Distance/Time
To Go:
Arrived

Flight Plot

Page will automatically refresh every two minutes.

Flight plan parsing failed; only flown route is shown


Map Options




Map Legend


Flown Route
Filed Route
Departure Airport
Arrival Airport
Navaid (VOR, NDB)
Fix

Horizontal Profiles

Position Reports

Time Latitude Longitude Heading Altitude Ground
Speed
20-Sep-20 21:09 33.944615 -118.411392 82 130ft 0kts
20-Sep-20 21:10 33.944615 -118.411392 82 130ft 0kts
20-Sep-20 21:12 33.944615 -118.411392 82 130ft 0kts
20-Sep-20 21:12 33.944615 -118.411392 82 130ft 0kts
20-Sep-20 21:13 33.944615 -118.411392 82 130ft 0kts
20-Sep-20 21:14 33.944615 -118.411392 82 130ft 0kts
20-Sep-20 21:15 33.944615 -118.411392 82 130ft 0kts
20-Sep-20 21:16 33.944615 -118.411392 82 130ft 0kts
20-Sep-20 21:17 33.944615 -118.411392 82 130ft 0kts
20-Sep-20 21:18 33.944615 -118.411392 82 130ft 0kts
20-Sep-20 21:19 33.944615 -118.411392 82 130ft 0kts
20-Sep-20 21:20 33.944615 -118.411392 82 130ft 0kts
20-Sep-20 21:21 33.944597 -118.411560 82 130ft 2kts
20-Sep-20 21:22 33.944423 -118.412170 45 130ft 2kts
20-Sep-20 21:23 33.943919 -118.412404 353 129ft 0kts
20-Sep-20 21:24 33.943892 -118.412400 352 129ft 0kts
20-Sep-20 21:25 33.943892 -118.412400 352 129ft 0kts
20-Sep-20 21:26 33.943892 -118.412400 352 129ft 0kts
20-Sep-20 21:27 33.943970 -118.412413 352 129ft 2kts
20-Sep-20 21:28 33.946686 -118.412815 353 131ft 15kts
20-Sep-20 21:29 33.948345 -118.409040 82 133ft 18kts
20-Sep-20 21:30 33.949105 -118.401383 84 126ft 24kts
20-Sep-20 21:31 33.950398 -118.399482 264 123ft 2kts
20-Sep-20 21:32 33.946838 -118.434252 262 358ft 179kts
20-Sep-20 21:33 33.942729 -118.493819 267 2263ft 196kts
20-Sep-20 21:34 33.937485 -118.568604 263 3692ft 254kts
20-Sep-20 21:35 33.906774 -118.640430 194 6285ft 267kts
20-Sep-20 21:36 33.832465 -118.630349 154 8835ft 279kts
20-Sep-20 21:37 33.766091 -118.576955 147 10808ft 305kts
20-Sep-20 21:38 33.695425 -118.508805 122 12436ft 342kts
20-Sep-20 21:39 33.661429 -118.399511 112 14637ft 355kts
20-Sep-20 21:40 33.644496 -118.281040 93 16567ft 375kts
20-Sep-20 21:41 33.666917 -118.158890 43 18231ft 404kts
20-Sep-20 21:42 33.759458 -118.077369 36 19845ft 421kts
20-Sep-20 21:43 33.854675 -117.992113 36 21431ft 435kts
20-Sep-20 21:44 33.952583 -117.903397 35 23267ft 439kts
20-Sep-20 21:45 34.050675 -117.813589 34 24739ft 449kts
20-Sep-20 21:46 34.139564 -117.705835 49 26282ft 458kts
20-Sep-20 21:47 34.220106 -117.584990 48 27537ft 468kts
20-Sep-20 21:49 34.317079 -117.440351 46 28949ft 478kts
20-Sep-20 21:49 34.387569 -117.335128 46 29962ft 484kts
20-Sep-20 21:50 34.472837 -117.206691 46 30762ft 498kts
20-Sep-20 21:51 34.561156 -117.074124 44 31705ft 507kts
20-Sep-20 21:52 34.650195 -116.944883 44 33477ft 492kts
20-Sep-20 21:53 34.737336 -116.817653 44 34479ft 493kts
20-Sep-20 21:54 34.825145 -116.688601 44 34938ft 496kts
20-Sep-20 21:55 34.915696 -116.563732 42 34943ft 493kts
20-Sep-20 21:56 35.007676 -116.441260 44 34948ft 486kts
20-Sep-20 21:57 35.097851 -116.319857 46 34958ft 481kts
20-Sep-20 21:58 35.187984 -116.198398 46 34960ft 482kts
20-Sep-20 21:59 35.277541 -116.077305 46 34960ft 481kts
20-Sep-20 22:00 35.367044 -115.955753 46 34960ft 482kts
20-Sep-20 22:01 35.457024 -115.833119 46 34963ft 482kts
20-Sep-20 22:02 35.546380 -115.710860 46 34976ft 482kts
20-Sep-20 22:03 35.635628 -115.588194 46 34987ft 482kts
20-Sep-20 22:04 35.724866 -115.465267 46 34988ft 482kts
20-Sep-20 22:05 35.814038 -115.342207 46 34986ft 482kts
20-Sep-20 22:06 35.902951 -115.218303 46 34987ft 482kts
20-Sep-20 22:07 35.991810 -115.094497 47 34983ft 484kts
20-Sep-20 22:08 36.080751 -114.970025 48 34960ft 486kts
20-Sep-20 22:09 36.174838 -114.849870 39 34932ft 486kts
20-Sep-20 22:10 36.286864 -114.757758 27 34926ft 484kts
20-Sep-20 22:11 36.405596 -114.679474 26 34910ft 485kts
20-Sep-20 22:12 36.524601 -114.600300 26 34907ft 485kts
20-Sep-20 22:13 36.643092 -114.520995 26 34907ft 485kts
20-Sep-20 22:14 36.759796 -114.438031 30 34909ft 485kts
20-Sep-20 22:15 36.873799 -114.348422 30 34942ft 484kts
20-Sep-20 22:16 36.986909 -114.258867 30 34989ft 482kts
20-Sep-20 22:17 37.099590 -114.169813 31 35021ft 476kts
20-Sep-20 22:18 37.210949 -114.081871 31 35025ft 473kts
20-Sep-20 22:19 37.321921 -113.993647 31 35025ft 474kts
20-Sep-20 22:20 37.433281 -113.904731 31 35025ft 475kts
20-Sep-20 22:21 37.544763 -113.815377 31 35025ft 475kts
20-Sep-20 22:22 37.656054 -113.725845 31 35038ft 475kts
20-Sep-20 22:23 37.767054 -113.636180 31 35149ft 474kts
20-Sep-20 22:24 37.877535 -113.546493 31 35204ft 474kts
20-Sep-20 22:25 37.991828 -113.463457 25 35209ft 473kts
20-Sep-20 22:26 38.109126 -113.388427 25 35209ft 473kts
20-Sep-20 22:27 38.226619 -113.312645 25 35188ft 473kts
20-Sep-20 22:28 38.343853 -113.236355 25 35166ft 473kts
20-Sep-20 22:29 38.460500 -113.160405 25 35164ft 473kts
20-Sep-20 22:30 38.577723 -113.083819 25 35164ft 473kts
20-Sep-20 22:31 38.694363 -113.007319 25 35163ft 474kts
20-Sep-20 22:32 38.812177 -112.929776 25 35163ft 479kts
20-Sep-20 22:33 38.931350 -112.851012 25 35163ft 484kts
20-Sep-20 22:34 39.050740 -112.771746 23 35163ft 481kts
20-Sep-20 22:35 39.169413 -112.693041 23 35164ft 480kts
20-Sep-20 22:36 39.287646 -112.614212 23 35164ft 480kts
20-Sep-20 22:37 39.405832 -112.534940 23 35163ft 480kts
20-Sep-20 22:38 39.524455 -112.455053 23 35164ft 480kts
20-Sep-20 22:39 39.642307 -112.375369 23 35163ft 480kts
20-Sep-20 22:40 39.760696 -112.294630 24 35163ft 480kts
20-Sep-20 22:41 39.878663 -112.214061 24 35166ft 480kts
20-Sep-20 22:42 39.996695 -112.133278 24 35176ft 480kts
20-Sep-20 22:43 40.114635 -112.052243 24 35180ft 479kts
20-Sep-20 22:44 40.232459 -111.971053 24 35181ft 479kts
20-Sep-20 22:45 40.346687 -111.880366 30 35182ft 481kts
20-Sep-20 22:46 40.457850 -111.783352 30 35180ft 481kts
20-Sep-20 22:47 40.569116 -111.686042 30 35179ft 481kts
20-Sep-20 22:48 40.680421 -111.588375 30 35168ft 480kts
20-Sep-20 22:49 40.791020 -111.490916 30 35187ft 480kts
20-Sep-20 22:50 40.901792 -111.392909 30 35254ft 480kts
20-Sep-20 22:51 41.012235 -111.294386 30 35307ft 478kts
20-Sep-20 22:52 41.121228 -111.196777 28 35321ft 468kts
20-Sep-20 22:53 41.229090 -111.100696 28 35316ft 467kts
20-Sep-20 22:55 41.337513 -111.003385 28 35315ft 476kts
20-Sep-20 22:56 41.448123 -110.903584 29 35314ft 486kts
20-Sep-20 22:57 41.560298 -110.801782 29 35317ft 488kts
20-Sep-20 22:58 41.672146 -110.699871 29 35318ft 489kts
20-Sep-20 22:59 41.784036 -110.597520 29 35317ft 488kts
20-Sep-20 23:00 41.896433 -110.494295 29 35320ft 488kts
20-Sep-20 23:01 42.008075 -110.391297 29 35326ft 488kts
20-Sep-20 23:02 42.119538 -110.287727 30 35328ft 488kts
20-Sep-20 23:03 42.231277 -110.183854 30 35327ft 488kts
20-Sep-20 23:04 42.342783 -110.079678 30 35328ft 488kts
20-Sep-20 23:05 42.454069 -109.975198 30 35328ft 488kts
20-Sep-20 23:06 42.564916 -109.870683 30 35329ft 487kts
20-Sep-20 23:07 42.676127 -109.765355 30 35334ft 487kts
20-Sep-20 23:08 42.787205 -109.659678 30 35338ft 487kts
20-Sep-20 23:09 42.897892 -109.553912 30 35336ft 487kts
20-Sep-20 23:10 43.007856 -109.448365 30 35338ft 483kts
20-Sep-20 23:10 43.099050 -109.360476 30 35327ft 482kts
20-Sep-20 23:12 43.226756 -109.236771 31 35302ft 482kts
20-Sep-20 23:12 43.318113 -109.147884 30 35297ft 483kts
20-Sep-20 23:14 43.446302 -109.022650 30 35261ft 488kts
20-Sep-20 23:15 43.556938 -108.914045 30 35226ft 490kts
20-Sep-20 23:15 43.649246 -108.823028 30 35233ft 489kts
20-Sep-20 23:17 43.778135 -108.695366 30 35230ft 489kts
20-Sep-20 23:17 43.870039 -108.603932 30 35213ft 489kts
20-Sep-20 23:18 43.980398 -108.493645 30 35191ft 489kts
20-Sep-20 23:19 44.090158 -108.383446 30 35175ft 489kts
20-Sep-20 23:20 44.200485 -108.272175 31 35171ft 490kts
20-Sep-20 23:21 44.310192 -108.160898 31 35168ft 490kts
20-Sep-20 23:22 44.420149 -108.048905 31 35164ft 489kts
20-Sep-20 23:23 44.530102 -107.936415 31 35164ft 490kts
20-Sep-20 23:24 44.639766 -107.823666 31 35186ft 491kts
20-Sep-20 23:25 44.750682 -107.709152 31 35791ft 500kts
20-Sep-20 23:26 44.862313 -107.593256 31 36657ft 500kts
20-Sep-20 23:27 44.974367 -107.476346 31 37160ft 501kts
20-Sep-20 23:28 45.085329 -107.359964 31 37165ft 495kts
20-Sep-20 23:29 45.194686 -107.244703 32 37163ft 491kts
20-Sep-20 23:30 45.304444 -107.128500 32 37164ft 491kts
20-Sep-20 23:31 45.413467 -107.012476 32 37164ft 491kts
20-Sep-20 23:32 45.522692 -106.895658 31 37161ft 495kts
20-Sep-20 23:33 45.632860 -106.777259 31 37162ft 498kts
20-Sep-20 23:34 45.743168 -106.658118 31 37148ft 498kts
20-Sep-20 23:35 45.853796 -106.538000 31 37099ft 499kts
20-Sep-20 23:36 45.963908 -106.417805 31 37082ft 499kts
20-Sep-20 23:37 46.074009 -106.296761 32 37080ft 500kts
20-Sep-20 23:38 46.184299 -106.175149 32 37080ft 499kts
20-Sep-20 23:39 46.294535 -106.052846 32 37080ft 500kts
20-Sep-20 23:40 46.404440 -105.930178 32 37080ft 500kts
20-Sep-20 23:41 46.514040 -105.807152 32 37080ft 500kts
20-Sep-20 23:42 46.623880 -105.682685 32 37081ft 501kts
20-Sep-20 23:43 46.733277 -105.557980 32 37080ft 501kts
20-Sep-20 23:44 46.842654 -105.432634 32 37073ft 501kts
20-Sep-20 23:45 46.951515 -105.307139 34 37053ft 493kts
20-Sep-20 23:46 47.057124 -105.184504 35 37043ft 478kts
20-Sep-20 23:47 47.161219 -105.063452 35 37043ft 479kts
20-Sep-20 23:48 47.265644 -104.941521 35 37043ft 482kts
20-Sep-20 23:49 47.370899 -104.817716 35 37043ft 485kts
20-Sep-20 23:50 47.476166 -104.693221 35 37042ft 485kts
20-Sep-20 23:51 47.581057 -104.568514 35 37036ft 486kts
20-Sep-20 23:52 47.686261 -104.442752 35 37000ft 485kts
20-Sep-20 23:53 47.791020 -104.316731 36 36988ft 486kts
20-Sep-20 23:54 47.895715 -104.189772 36 36989ft 487kts
20-Sep-20 23:55 48.000371 -104.062571 36 36984ft 486kts
20-Sep-20 23:56 48.104978 -103.934662 36 36962ft 486kts
20-Sep-20 23:57 48.209774 -103.806076 36 36953ft 487kts
20-Sep-20 23:58 48.320559 -103.692182 27 36951ft 483kts
20-Sep-20 23:59 48.436005 -103.589413 27 36952ft 484kts
21-Sep-20 00:00 48.551386 -103.485496 27 36951ft 484kts
21-Sep-20 00:01 48.666538 -103.381107 27 36944ft 483kts
21-Sep-20 00:02 48.781480 -103.275949 28 36893ft 483kts
21-Sep-20 00:03 48.896321 -103.170430 28 36833ft 484kts
21-Sep-20 00:04 49.011931 -103.063832 27 36811ft 490kts
21-Sep-20 00:05 49.128664 -102.955693 26 36810ft 494kts
21-Sep-20 00:06 49.246135 -102.846723 26 36811ft 495kts
21-Sep-20 00:07 49.363409 -102.736887 26 36812ft 495kts
21-Sep-20 00:08 49.480649 -102.626436 26 36812ft 495kts
21-Sep-20 00:09 49.597383 -102.515814 26 36813ft 496kts
21-Sep-20 00:10 49.714758 -102.403921 26 36810ft 496kts
21-Sep-20 00:11 49.832065 -102.291176 27 36811ft 497kts
21-Sep-20 00:12 49.948990 -102.178079 27 36811ft 496kts
21-Sep-20 00:13 50.066247 -102.064368 27 36756ft 497kts
21-Sep-20 00:14 50.183311 -101.950477 27 36626ft 497kts
21-Sep-20 00:15 50.299978 -101.836200 27 36591ft 497kts
21-Sep-20 00:16 50.416701 -101.720966 26 36591ft 496kts
21-Sep-20 00:17 50.533119 -101.605413 27 36595ft 497kts
21-Sep-20 00:18 50.649743 -101.488918 27 36594ft 496kts
21-Sep-20 00:19 50.765954 -101.372166 27 36578ft 496kts
21-Sep-20 00:20 50.881989 -101.254433 28 36580ft 496kts
21-Sep-20 00:21 50.998741 -101.136100 32 36581ft 493kts
21-Sep-20 00:22 51.111424 -101.020423 32 36553ft 481kts
21-Sep-20 00:23 51.224283 -100.904688 33 36540ft 487kts
21-Sep-20 00:24 51.337870 -100.787220 34 36539ft 489kts
21-Sep-20 00:25 51.451810 -100.668466 34 36542ft 489kts
21-Sep-20 00:26 51.565730 -100.549093 34 36541ft 490kts
21-Sep-20 00:27 51.679446 -100.429212 34 36541ft 490kts
21-Sep-20 00:28 51.793330 -100.308269 34 36541ft 490kts
21-Sep-20 00:29 51.906757 -100.186809 34 36540ft 490kts
21-Sep-20 00:30 52.020042 -100.065135 34 36540ft 490kts
21-Sep-20 00:31 52.133577 -99.942591 34 36541ft 491kts
21-Sep-20 00:32 52.247120 -99.819625 34 36540ft 490kts
21-Sep-20 00:33 52.360389 -99.695771 34 36541ft 491kts
21-Sep-20 00:34 52.473325 -99.571442 34 36541ft 491kts
21-Sep-20 00:35 52.586235 -99.446361 34 36540ft 491kts
21-Sep-20 00:36 52.699201 -99.320322 35 36541ft 491kts
21-Sep-20 00:37 52.811885 -99.193425 35 36547ft 490kts
21-Sep-20 00:38 52.924196 -99.066564 35 36563ft 492kts
21-Sep-20 00:39 53.037307 -98.938232 37 36568ft 493kts
21-Sep-20 00:40 53.149456 -98.810257 38 36568ft 483kts
21-Sep-20 00:41 53.259951 -98.683200 38 36568ft 483kts
21-Sep-20 00:42 53.370045 -98.555616 38 36568ft 483kts
21-Sep-20 00:43 53.480311 -98.426981 38 36567ft 483kts
21-Sep-20 00:44 53.590298 -98.297642 39 36568ft 482kts
21-Sep-20 00:45 53.700089 -98.167535 39 36567ft 483kts
21-Sep-20 00:46 53.796823 -98.052404 39 36568ft 483kts
21-Sep-20 00:47 53.919268 -97.905469 39 36567ft 483kts
21-Sep-20 00:48 54.028706 -97.773237 39 36568ft 484kts
21-Sep-20 00:49 54.137644 -97.639785 39 36567ft 484kts
21-Sep-20 00:50 54.246898 -97.505026 40 36567ft 484kts
21-Sep-20 00:51 54.355411 -97.369747 40 36567ft 485kts
21-Sep-20 00:52 54.463475 -97.233680 41 36567ft 484kts
21-Sep-20 00:53 54.572135 -97.096132 40 36567ft 486kts
21-Sep-20 00:54 54.681010 -96.957531 40 36567ft 490kts
21-Sep-20 00:55 54.790724 -96.817014 40 36568ft 490kts
21-Sep-20 00:56 54.899802 -96.676272 39 36568ft 490kts
21-Sep-20 00:57 55.008933 -96.534184 37 36571ft 492kts
21-Sep-20 00:58 55.118089 -96.391671 37 36574ft 490kts
21-Sep-20 00:59 55.227273 -96.248259 37 36576ft 490kts
21-Sep-20 01:01 55.335781 -96.104190 38 36588ft 491kts
21-Sep-20 01:02 55.443866 -95.960005 39 36615ft 484kts
21-Sep-20 01:03 55.551087 -95.815600 39 36623ft 485kts
21-Sep-20 01:04 55.657809 -95.670911 39 36624ft 485kts
21-Sep-20 01:05 55.764602 -95.525142 39 36623ft 485kts
21-Sep-20 01:06 55.871129 -95.378713 39 36623ft 485kts
21-Sep-20 01:07 55.977220 -95.231383 40 36625ft 484kts
21-Sep-20 01:08 56.083412 -95.083091 40 36623ft 484kts
21-Sep-20 01:09 56.189331 -94.934777 40 36621ft 486kts
21-Sep-20 01:10 56.295459 -94.784142 40 36623ft 486kts
21-Sep-20 01:11 56.399466 -94.629378 42 36622ft 485kts
21-Sep-20 01:12 56.500062 -94.467487 43 36619ft 485kts
21-Sep-20 01:13 56.600447 -94.304463 43 36624ft 485kts
21-Sep-20 01:14 56.700600 -94.140293 44 36619ft 485kts
21-Sep-20 01:15 56.800613 -93.975505 44 36622ft 486kts
21-Sep-20 01:16 56.900426 -93.809875 44 36623ft 484kts
21-Sep-20 01:17 56.999966 -93.643375 43 36618ft 487kts
21-Sep-20 01:17 57.083357 -93.502681 42 36608ft 491kts
21-Sep-20 01:19 57.200444 -93.304938 42 36607ft 491kts
21-Sep-20 01:20 57.300642 -93.133333 42 36607ft 491kts
21-Sep-20 01:20 57.383888 -92.989877 42 36607ft 491kts
21-Sep-20 01:22 57.499865 -92.788441 42 36606ft 491kts
21-Sep-20 01:22 57.582744 -92.643384 42 36605ft 492kts
21-Sep-20 01:24 57.698621 -92.438926 42 36607ft 491kts
21-Sep-20 01:24 57.780957 -92.292348 43 36607ft 491kts
21-Sep-20 01:25 57.879599 -92.115224 43 36607ft 491kts
21-Sep-20 01:26 57.977883 -91.937712 42 36607ft 491kts
21-Sep-20 01:27 58.075959 -91.759192 43 36606ft 490kts
21-Sep-20 01:28 58.173937 -91.580108 42 36607ft 491kts
21-Sep-20 01:29 58.271256 -91.400418 43 36607ft 491kts
21-Sep-20 01:30 58.368634 -91.218411 44 36607ft 490kts
21-Sep-20 01:31 58.465889 -91.035267 43 36607ft 493kts
21-Sep-20 01:32 58.562994 -90.851113 43 36607ft 493kts
21-Sep-20 01:33 58.660084 -90.665467 43 36607ft 493kts
21-Sep-20 01:34 58.756838 -90.478813 43 36608ft 493kts
21-Sep-20 01:35 58.853199 -90.291017 44 36626ft 493kts
21-Sep-20 01:36 58.949234 -90.101619 43 36637ft 495kts
21-Sep-20 01:37 59.038637 -89.899496 51 36722ft 497kts
21-Sep-20 01:38 59.118616 -89.680600 51 36750ft 496kts
21-Sep-20 01:39 59.198448 -89.461442 51 36755ft 497kts
21-Sep-20 01:40 59.277580 -89.241130 52 36754ft 497kts
21-Sep-20 01:41 59.356669 -89.018540 52 36755ft 497kts
21-Sep-20 01:42 59.435515 -88.795070 53 36754ft 500kts
21-Sep-20 01:43 59.513907 -88.570420 53 36755ft 499kts
21-Sep-20 01:44 59.591868 -88.345006 54 36755ft 499kts
21-Sep-20 01:45 59.669586 -88.117637 54 36755ft 500kts
21-Sep-20 01:46 59.746992 -87.889375 54 36755ft 500kts
21-Sep-20 01:47 59.823927 -87.660281 53 36755ft 499kts
21-Sep-20 01:48 59.900482 -87.430238 53 36755ft 499kts
21-Sep-20 01:49 59.976382 -87.199463 55 36755ft 499kts
21-Sep-20 01:50 60.052152 -86.966755 54 36755ft 500kts
21-Sep-20 01:51 60.127824 -86.732968 53 36755ft 501kts
21-Sep-20 01:52 60.203255 -86.498304 54 36755ft 501kts
21-Sep-20 01:53 60.278085 -86.261817 55 36754ft 502kts
21-Sep-20 01:54 60.352199 -86.024761 55 36755ft 502kts
21-Sep-20 01:55 60.426395 -85.785388 55 36755ft 502kts
21-Sep-20 01:56 60.499877 -85.545922 55 36755ft 502kts
21-Sep-20 01:57 60.573247 -85.304194 56 36754ft 502kts
21-Sep-20 01:58 60.645987 -85.061450 55 36755ft 503kts
21-Sep-20 01:59 60.718493 -84.817541 55 36755ft 504kts
21-Sep-20 02:00 60.790439 -84.573109 55 36755ft 504kts
21-Sep-20 02:01 60.862109 -84.326818 56 36753ft 504kts
21-Sep-20 02:02 60.933382 -84.078567 55 36755ft 504kts
21-Sep-20 02:03 61.004117 -83.830143 55 36766ft 504kts
21-Sep-20 02:04 61.074441 -83.580432 55 36807ft 504kts
21-Sep-20 02:05 61.144795 -83.329037 56 36817ft 505kts
21-Sep-20 02:06 61.214276 -83.077017 56 36819ft 505kts
21-Sep-20 02:07 61.283455 -82.822687 55 36819ft 507kts
21-Sep-20 02:08 61.352265 -82.567401 55 36819ft 507kts
21-Sep-20 02:09 61.420802 -82.310060 56 36817ft 508kts
21-Sep-20 02:10 61.488403 -82.052635 56 36819ft 507kts
21-Sep-20 02:11 61.555834 -81.793376 56 36819ft 507kts
21-Sep-20 02:12 61.622786 -81.532984 56 36819ft 507kts
21-Sep-20 02:13 61.689246 -81.271315 58 36818ft 508kts
21-Sep-20 02:14 61.755087 -81.008483 57 36819ft 508kts
21-Sep-20 02:15 61.820339 -80.745333 57 36819ft 507kts
21-Sep-20 02:16 61.885275 -80.480227 57 36819ft 507kts
21-Sep-20 02:17 61.949349 -80.214446 58 36747ft 505kts
21-Sep-20 02:18 62.011429 -79.946150 61 36724ft 507kts
21-Sep-20 02:19 62.065136 -79.669381 62 36673ft 507kts
21-Sep-20 02:20 62.118205 -79.390873 62 36617ft 507kts
21-Sep-20 02:21 62.171053 -79.110822 63 36608ft 507kts
21-Sep-20 02:22 62.222824 -78.830898 63 36607ft 506kts
21-Sep-20 02:23 62.274166 -78.549486 63 36607ft 506kts
21-Sep-20 02:24 62.324728 -78.268105 64 36607ft 507kts
21-Sep-20 02:25 62.374915 -77.984081 64 36608ft 507kts
21-Sep-20 02:26 62.424577 -77.699362 64 36608ft 507kts
21-Sep-20 02:27 62.473673 -77.413783 64 36607ft 508kts
21-Sep-20 02:28 62.522064 -77.127368 65 36607ft 507kts
21-Sep-20 02:29 62.569677 -76.840812 64 36609ft 507kts
21-Sep-20 02:30 62.616893 -76.553435 63 36607ft 506kts
21-Sep-20 02:31 62.663493 -76.265127 65 36606ft 506kts
21-Sep-20 02:32 62.709247 -75.976468 64 36607ft 503kts
21-Sep-20 02:33 62.754523 -75.687237 64 36607ft 504kts
21-Sep-20 02:34 62.799019 -75.398161 64 36607ft 504kts
21-Sep-20 02:35 62.843065 -75.106633 65 36607ft 505kts
21-Sep-20 02:36 62.886356 -74.814607 63 36608ft 506kts
21-Sep-20 02:37 62.929595 -74.520164 63 36608ft 507kts
21-Sep-20 02:38 62.972008 -74.225269 64 36606ft 508kts
21-Sep-20 02:39 63.013802 -73.928877 64 36608ft 507kts
21-Sep-20 02:40 63.054973 -73.632469 64 36607ft 508kts
21-Sep-20 02:41 63.095565 -73.334664 65 36605ft 507kts
21-Sep-20 02:42 63.135897 -73.035949 65 36607ft 509kts
21-Sep-20 02:43 63.175426 -72.735921 65 36608ft 509kts
21-Sep-20 02:44 63.214436 -72.433579 65 36624ft 510kts
21-Sep-20 02:45 63.252657 -72.130777 66 36642ft 510kts
21-Sep-20 02:46 63.290338 -71.826627 66 36643ft 511kts
21-Sep-20 02:47 63.327322 -71.521981 66 36644ft 508kts
21-Sep-20 02:48 63.363573 -71.217547 67 36642ft 509kts
21-Sep-20 02:49 63.399124 -70.911979 67 36642ft 511kts
21-Sep-20 02:50 63.434200 -70.604335 67 36643ft 513kts
21-Sep-20 02:51 63.468694 -70.294227 68 36639ft 514kts
21-Sep-20 02:52 63.502313 -69.983270 68 36641ft 515kts
21-Sep-20 02:53 63.533120 -69.669352 69 36643ft 516kts
21-Sep-20 02:54 63.562531 -69.354765 69 36643ft 516kts
21-Sep-20 02:55 63.591130 -69.040376 70 36644ft 515kts
21-Sep-20 02:56 63.619072 -68.725697 70 36643ft 513kts
21-Sep-20 02:57 63.646278 -68.411388 70 36643ft 512kts
21-Sep-20 02:58 63.672820 -68.095501 71 36643ft 513kts
21-Sep-20 02:59 63.698610 -67.779879 71 36643ft 513kts
21-Sep-20 03:00 63.723754 -67.463483 71 36643ft 513kts
21-Sep-20 03:01 63.748239 -67.145652 72 36643ft 514kts
21-Sep-20 03:02 63.771875 -66.828218 71 36644ft 509kts
21-Sep-20 03:03 63.794860 -66.512001 71 36643ft 509kts
21-Sep-20 03:04 63.817042 -66.195914 72 36643ft 512kts
21-Sep-20 03:05 63.838572 -65.877112 72 36643ft 511kts
21-Sep-20 03:06 63.859516 -65.557770 72 36643ft 512kts
21-Sep-20 03:07 63.879673 -65.239049 73 36642ft 513kts
21-Sep-20 03:08 63.899113 -64.918507 73 36648ft 510kts
21-Sep-20 03:09 63.917735 -64.601210 73 36697ft 507kts
21-Sep-20 03:10 63.935646 -64.284156 74 36755ft 507kts
21-Sep-20 03:11 63.952776 -63.966425 74 36764ft 507kts
21-Sep-20 03:12 63.969261 -63.647658 74 36764ft 507kts
21-Sep-20 03:13 63.984963 -63.328562 75 36762ft 507kts
21-Sep-20 03:14 63.999973 -63.009818 73 36763ft 505kts
21-Sep-20 03:15 64.022512 -62.694746 71 36764ft 504kts
21-Sep-20 03:16 64.044591 -62.378947 71 36764ft 504kts
21-Sep-20 03:17 64.065724 -62.062720 72 36764ft 504kts
21-Sep-20 03:18 64.086204 -61.746255 72 36764ft 504kts
21-Sep-20 03:19 64.106141 -61.429155 72 36766ft 504kts
21-Sep-20 03:20 64.125607 -61.111662 73 36764ft 505kts
21-Sep-20 03:21 64.143995 -60.793915 73 36764ft 503kts
21-Sep-20 03:22 64.161699 -60.476100 73 36764ft 504kts
21-Sep-20 03:23 64.178663 -60.157482 74 36764ft 504kts
21-Sep-20 03:24 64.194919 -59.838061 74 36765ft 504kts
21-Sep-20 03:25 64.210416 -59.519037 74 36764ft 504kts
21-Sep-20 03:26 64.225000 -59.199279 75 36763ft 505kts
21-Sep-20 03:27 64.235159 -58.876327 80 36765ft 508kts
21-Sep-20 03:28 64.236199 -58.553746 80 36763ft 505kts
21-Sep-20 03:30 64.236461 -58.231472 81 36764ft 506kts
21-Sep-20 03:31 64.235990 -57.908346 81 36803ft 506kts
21-Sep-20 03:32 64.234852 -57.585896 81 36815ft 506kts
21-Sep-20 03:33 64.233006 -57.263350 82 36814ft 507kts
21-Sep-20 03:34 64.230431 -56.939609 83 36815ft 503kts
21-Sep-20 03:35 64.227166 -56.619742 83 36815ft 501kts
21-Sep-20 03:36 64.223202 -56.300066 84 36813ft 501kts
21-Sep-20 03:37 64.218537 -55.980134 84 36817ft 501kts
21-Sep-20 03:38 64.213186 -55.660306 84 36815ft 502kts
21-Sep-20 03:39 64.207109 -55.340043 85 36815ft 501kts
21-Sep-20 03:40 64.200404 -55.020377 85 36815ft 499kts
21-Sep-20 03:41 64.193009 -54.704230 86 36817ft 496kts
21-Sep-20 03:42 64.184934 -54.388566 86 36817ft 496kts
21-Sep-20 03:43 64.176198 -54.072438 87 36814ft 497kts
21-Sep-20 03:44 64.166796 -53.757579 87 36815ft 497kts
21-Sep-20 03:45 64.156645 -53.441338 87 36816ft 497kts
21-Sep-20 03:46 64.145873 -53.126526 88 36818ft 497kts
21-Sep-20 03:47 64.134438 -52.811853 88 36816ft 493kts
21-Sep-20 03:47 64.124450 -52.552032 88 36815ft 492kts
21-Sep-20 03:49 64.109664 -52.187993 89 36815ft 493kts
21-Sep-20 03:50 64.096268 -51.876461 89 36815ft 493kts
21-Sep-20 03:51 64.082178 -51.564664 89 36816ft 493kts
21-Sep-20 03:52 64.067433 -51.253342 90 36815ft 493kts
21-Sep-20 03:52 64.054676 -50.994548 91 36816ft 492kts
21-Sep-20 03:54 64.036075 -50.635534 92 36815ft 488kts
21-Sep-20 03:55 64.019329 -50.328451 93 36814ft 488kts
21-Sep-20 03:55 64.004713 -50.072480 93 36815ft 488kts
21-Sep-20 03:57 63.983341 -49.716528 93 36815ft 487kts
21-Sep-20 03:57 63.966739 -49.461483 93 36815ft 488kts
21-Sep-20 03:58 63.946184 -49.156654 95 36815ft 488kts
21-Sep-20 04:00 63.921572 -48.803536 96 36816ft 483kts
21-Sep-20 04:00 63.903445 -48.553035 96 36815ft 483kts
21-Sep-20 04:01 63.880708 -48.252125 97 36815ft 483kts
21-Sep-20 04:02 63.857679 -47.952174 96 36814ft 484kts
21-Sep-20 04:03 63.833892 -47.649811 95 36852ft 489kts
21-Sep-20 04:04 63.809466 -47.346659 96 36869ft 489kts
21-Sep-20 04:05 63.784480 -47.045124 96 36870ft 488kts
21-Sep-20 04:06 63.758989 -46.744957 97 36871ft 485kts
21-Sep-20 04:07 63.732844 -46.446652 97 36870ft 485kts
21-Sep-20 04:08 63.706133 -46.148531 98 36870ft 484kts
21-Sep-20 04:09 63.678926 -45.852352 98 36870ft 484kts
21-Sep-20 04:10 63.651070 -45.556385 98 36870ft 483kts
21-Sep-20 04:11 63.622700 -45.261816 99 36868ft 484kts
21-Sep-20 04:12 63.593720 -44.966903 100 36871ft 483kts
21-Sep-20 04:13 63.564159 -44.674004 101 36870ft 480kts
21-Sep-20 04:14 63.533979 -44.381797 101 36870ft 481kts
21-Sep-20 04:15 63.503409 -44.091241 102 36870ft 480kts
21-Sep-20 04:16 63.472147 -43.800691 102 36870ft 480kts
21-Sep-20 04:17 63.440318 -43.511081 102 36870ft 481kts
21-Sep-20 04:18 63.407956 -43.222264 103 36870ft 480kts
21-Sep-20 04:19 63.375081 -42.934093 104 36871ft 478kts
21-Sep-20 04:20 63.341632 -42.648112 104 36870ft 478kts
21-Sep-20 04:21 63.307627 -42.362509 104 36870ft 478kts
21-Sep-20 04:22 63.273123 -42.077612 105 36870ft 477kts
21-Sep-20 04:23 63.238051 -41.793812 105 36870ft 477kts
21-Sep-20 04:24 63.202379 -41.510513 105 36870ft 477kts
21-Sep-20 04:25 63.166489 -41.230443 106 36869ft 476kts
21-Sep-20 04:26 63.129762 -40.948774 106 36694ft 477kts
21-Sep-20 04:27 63.092355 -40.667404 108 36606ft 477kts
21-Sep-20 04:28 63.055080 -40.393358 108 36597ft 477kts
21-Sep-20 04:29 63.015690 -40.108669 108 36597ft 477kts
21-Sep-20 04:30 62.989689 -39.821656 98 36596ft 479kts
21-Sep-20 04:31 62.971609 -39.532693 98 36597ft 479kts
21-Sep-20 04:32 62.952453 -39.242563 99 36597ft 479kts
21-Sep-20 04:33 62.932737 -38.953335 100 36595ft 480kts
21-Sep-20 04:34 62.912281 -38.663870 101 36597ft 481kts
21-Sep-20 04:35 62.891026 -38.374856 101 36597ft 481kts
21-Sep-20 04:36 62.869107 -38.086175 102 36597ft 481kts
21-Sep-20 04:37 62.846884 -37.798003 102 36596ft 480kts
21-Sep-20 04:38 62.824071 -37.509960 102 36597ft 479kts
21-Sep-20 04:39 62.800772 -37.223214 103 36596ft 479kts
21-Sep-20 04:40 62.776885 -36.936101 104 36596ft 483kts
21-Sep-20 04:41 62.752110 -36.647580 104 36597ft 483kts
21-Sep-20 04:42 62.726822 -36.360138 104 36597ft 483kts
21-Sep-20 04:43 62.701000 -36.072932 104 36596ft 482kts
21-Sep-20 04:44 62.674593 -35.786745 104 36597ft 482kts
21-Sep-20 04:45 62.647644 -35.501589 105 36596ft 483kts
21-Sep-20 04:46 62.620132 -35.216677 105 36596ft 481kts
21-Sep-20 04:47 62.592097 -34.932719 106 36595ft 483kts
21-Sep-20 04:48 62.563241 -34.647154 107 36596ft 485kts
21-Sep-20 04:49 62.533658 -34.361607 107 36597ft 485kts
21-Sep-20 04:50 62.503709 -34.077447 108 36597ft 485kts
21-Sep-20 04:51 62.473088 -33.793538 108 36597ft 485kts
21-Sep-20 04:52 62.441894 -33.510361 108 36597ft 485kts
21-Sep-20 04:53 62.410219 -33.228164 109 36596ft 484kts
21-Sep-20 04:54 62.377925 -32.945707 110 36595ft 489kts
21-Sep-20 04:55 62.344580 -32.660872 110 36596ft 491kts
21-Sep-20 04:56 62.310531 -32.375720 110 36596ft 492kts
21-Sep-20 04:57 62.276082 -32.091740 111 36596ft 491kts
21-Sep-20 04:58 62.240990 -31.808654 111 36596ft 492kts
21-Sep-20 04:59 62.205339 -31.526308 111 36597ft 491kts
21-Sep-20 05:00 62.169002 -31.243594 112 36596ft 491kts
21-Sep-20 05:01 62.132114 -30.961305 113 36595ft 496kts
21-Sep-20 05:02 62.094216 -30.678068 113 36597ft 497kts
21-Sep-20 05:03 62.055841 -30.396363 114 36611ft 495kts
21-Sep-20 05:04 62.016754 -30.115252 115 36462ft 495kts
21-Sep-20 05:05 61.989811 -29.824672 104 36407ft 507kts
21-Sep-20 05:06 61.971633 -29.527316 104 36404ft 507kts
21-Sep-20 05:07 61.952233 -29.230540 105 36403ft 506kts
21-Sep-20 05:08 61.932219 -28.935468 105 36402ft 508kts
21-Sep-20 05:09 61.911266 -28.637072 106 36403ft 513kts
21-Sep-20 05:10 61.889347 -28.338185 107 36410ft 513kts
21-Sep-20 05:11 61.866787 -28.039501 107 36451ft 512kts
21-Sep-20 05:12 61.843820 -27.741478 107 36482ft 512kts
21-Sep-20 05:13 61.820275 -27.444574 107 36484ft 512kts
21-Sep-20 05:14 61.796149 -27.148015 108 36484ft 512kts
21-Sep-20 05:15 61.771313 -26.851403 109 36483ft 518kts
21-Sep-20 05:16 61.745470 -26.551938 108 36484ft 518kts
21-Sep-20 05:17 61.718994 -26.252332 109 36483ft 518kts
21-Sep-20 05:18 61.692145 -25.955911 110 36484ft 515kts
21-Sep-20 05:19 61.664610 -25.660783 110 36484ft 515kts
21-Sep-20 05:20 61.636468 -25.366023 110 36484ft 515kts
21-Sep-20 05:21 61.607749 -25.071259 111 36483ft 516kts
21-Sep-20 05:22 61.578075 -24.774796 112 36484ft 519kts
21-Sep-20 05:23 61.547637 -24.478442 112 36484ft 520kts
21-Sep-20 05:24 61.516870 -24.184202 113 36483ft 518kts
21-Sep-20 05:25 61.485223 -23.888980 113 36484ft 519kts
21-Sep-20 05:26 61.453030 -23.595435 113 36484ft 519kts
21-Sep-20 05:27 61.420161 -23.301804 114 36482ft 519kts
21-Sep-20 05:28 61.386826 -23.009639 114 36484ft 518kts
21-Sep-20 05:29 61.352744 -22.717756 114 36483ft 520kts
21-Sep-20 05:30 61.317906 -22.425841 114 36485ft 520kts
21-Sep-20 05:31 61.282617 -22.134948 115 36484ft 519kts
21-Sep-20 05:32 61.246711 -21.845450 115 36511ft 519kts
21-Sep-20 05:33 61.210217 -21.556663 116 36559ft 515kts
21-Sep-20 05:34 61.173215 -21.269879 117 36567ft 514kts
21-Sep-20 05:35 61.135801 -20.984691 117 36568ft 516kts
21-Sep-20 05:36 61.097416 -20.698283 117 36568ft 517kts
21-Sep-20 05:37 61.058469 -20.413260 117 36569ft 516kts
21-Sep-20 05:38 61.018828 -20.129110 118 36566ft 514kts
21-Sep-20 05:39 60.990319 -19.835819 106 36567ft 533kts
21-Sep-20 05:41 60.972356 -19.533594 107 36568ft 533kts
21-Sep-20 05:42 60.952793 -19.231290 108 36566ft 532kts
21-Sep-20 05:43 60.932657 -18.930887 109 36569ft 530kts
21-Sep-20 05:44 60.911686 -18.631468 109 36568ft 531kts
21-Sep-20 05:45 60.889856 -18.331612 110 36567ft 530kts
21-Sep-20 05:46 60.867454 -18.033516 110 36568ft 529kts
21-Sep-20 05:47 60.844552 -17.735058 110 36568ft 530kts
21-Sep-20 05:48 60.821043 -17.437624 110 36568ft 530kts
21-Sep-20 05:49 60.797140 -17.141583 111 36568ft 524kts
21-Sep-20 05:50 60.772458 -16.847922 111 36567ft 526kts
21-Sep-20 05:51 60.747074 -16.552667 111 36568ft 528kts
21-Sep-20 05:52 60.721055 -16.257190 112 36566ft 527kts
21-Sep-20 05:53 60.694470 -15.963351 112 36535ft 527kts
21-Sep-20 05:54 60.667124 -15.669372 112 36517ft 528kts
21-Sep-20 05:55 60.639131 -15.375826 112 36515ft 528kts
21-Sep-20 05:56 60.610671 -15.083407 113 36515ft 526kts
21-Sep-20 05:57 60.581541 -14.792069 113 36515ft 526kts
21-Sep-20 05:58 60.551760 -14.501666 113 36514ft 526kts
21-Sep-20 05:58 60.526488 -14.259520 114 36513ft 525kts
21-Sep-20 06:00 60.490518 -13.922740 114 36515ft 525kts
21-Sep-20 06:01 60.458852 -13.633719 114 36514ft 525kts
21-Sep-20 06:01 60.432056 -13.393863 114 36514ft 525kts
21-Sep-20 06:03 60.394007 -13.059273 115 36515ft 523kts
21-Sep-20 06:03 60.366449 -12.821696 116 36523ft 516kts
21-Sep-20 06:04 60.332895 -12.539696 116 36538ft 515kts
21-Sep-20 06:05 60.298989 -12.259430 117 36537ft 515kts
21-Sep-20 06:06 60.264418 -11.978473 117 36606ft 515kts
21-Sep-20 06:07 60.229263 -11.699126 117 36692ft 516kts
21-Sep-20 06:08 60.193469 -11.419719 117 36705ft 516kts
21-Sep-20 06:09 60.157276 -11.141937 118 36705ft 514kts
21-Sep-20 06:10 60.120319 -10.864687 117 36705ft 517kts
21-Sep-20 06:11 60.082657 -10.586563 117 36706ft 517kts
21-Sep-20 06:12 60.044235 -10.308604 118 36702ft 518kts
21-Sep-20 06:13 60.005572 -10.031317 115 36704ft 519kts
21-Sep-20 06:14 59.982555 -9.742250 108 36704ft 526kts
21-Sep-20 06:15 59.950840 -9.462361 123 36709ft 507kts
21-Sep-20 06:16 59.888234 -9.218411 134 36706ft 493kts
21-Sep-20 06:17 59.820351 -8.980298 133 36707ft 496kts
21-Sep-20 06:18 59.753124 -8.743024 133 36759ft 491kts
21-Sep-20 06:19 59.685647 -8.507477 133 36934ft 494kts
21-Sep-20 06:20 59.617583 -8.271786 134 38046ft 495kts
21-Sep-20 06:21 59.547868 -8.032847 133 38487ft 510kts
21-Sep-20 06:22 59.475704 -7.788342 133 38892ft 525kts
21-Sep-20 06:23 59.401335 -7.538772 133 38898ft 530kts
21-Sep-20 06:24 59.326602 -7.290772 133 38896ft 529kts
21-Sep-20 06:25 59.251660 -7.044891 132 38894ft 530kts
21-Sep-20 06:26 59.175308 -6.797042 131 38897ft 532kts
21-Sep-20 06:27 59.098497 -6.550194 131 38897ft 532kts
21-Sep-20 06:28 59.021201 -6.304681 132 38897ft 532kts
21-Sep-20 06:29 58.943938 -6.061677 130 38899ft 524kts
21-Sep-20 06:30 58.867320 -5.823851 128 38898ft 516kts
21-Sep-20 06:31 58.790923 -5.589131 128 38897ft 516kts
21-Sep-20 06:32 58.714165 -5.355108 128 38898ft 517kts
21-Sep-20 06:33 58.637461 -5.122827 129 38898ft 514kts
21-Sep-20 06:34 58.560199 -4.891905 128 38899ft 518kts
21-Sep-20 06:35 58.481444 -4.658787 128 38919ft 523kts
21-Sep-20 06:36 58.402406 -4.426858 128 38924ft 522kts
21-Sep-20 06:37 58.322663 -4.194902 129 38924ft 522kts
21-Sep-20 06:38 58.242634 -3.964582 129 38924ft 522kts
21-Sep-20 06:39 58.162266 -3.735751 129 38923ft 522kts
21-Sep-20 06:40 58.081495 -3.507967 129 38918ft 522kts
21-Sep-20 06:41 58.000322 -3.281079 130 38904ft 522kts
21-Sep-20 06:42 57.918778 -3.055035 129 38898ft 520kts
21-Sep-20 06:43 57.837359 -2.833075 129 38898ft 515kts
21-Sep-20 06:44 57.755773 -2.611831 129 38897ft 515kts
21-Sep-20 06:45 57.674258 -2.392584 129 38912ft 515kts
21-Sep-20 06:46 57.592348 -2.173870 130 38923ft 515kts
21-Sep-20 06:47 57.509954 -1.956613 130 38924ft 514kts
21-Sep-20 06:48 57.427112 -1.740510 129 38924ft 514kts
21-Sep-20 06:49 57.344743 -1.524777 130 38924ft 513kts
21-Sep-20 06:50 57.261485 -1.310337 131 38923ft 513kts
21-Sep-20 06:51 57.178287 -1.097822 130 38924ft 512kts
21-Sep-20 06:52 57.094530 -0.886343 129 38925ft 511kts
21-Sep-20 06:53 57.011118 -0.677715 127 38926ft 502kts
21-Sep-20 06:54 56.929487 -0.474681 126 38925ft 489kts
21-Sep-20 06:55 56.848713 -0.276236 127 38924ft 489kts
21-Sep-20 06:56 56.767336 -0.077685 127 38924ft 488kts
21-Sep-20 06:57 56.685713 0.119958 127 38924ft 489kts
21-Sep-20 06:58 56.603625 0.317020 127 38926ft 489kts
21-Sep-20 06:59 56.521437 0.512497 127 38934ft 489kts
21-Sep-20 07:00 56.438716 0.707427 128 38927ft 489kts
21-Sep-20 07:01 56.366177 0.914014 119 38925ft 489kts
21-Sep-20 07:02 56.298681 1.126087 120 38948ft 483kts
21-Sep-20 07:03 56.231785 1.333617 120 39004ft 480kts
21-Sep-20 07:04 56.163465 1.543683 120 39009ft 490kts
21-Sep-20 07:05 56.094581 1.753789 121 39007ft 490kts
21-Sep-20 07:06 56.025171 1.963311 121 39007ft 490kts
21-Sep-20 07:07 55.955158 2.171931 121 39007ft 490kts
21-Sep-20 07:08 55.872906 2.363730 138 39006ft 488kts
21-Sep-20 07:09 55.760621 2.496300 153 39011ft 486kts
21-Sep-20 07:10 55.640188 2.608468 152 39786ft 488kts
21-Sep-20 07:11 55.521370 2.721020 153 40742ft 486kts
21-Sep-20 07:12 55.401949 2.832308 153 41031ft 486kts
21-Sep-20 07:13 55.283504 2.941500 153 41032ft 485kts
21-Sep-20 07:14 55.164801 3.050041 153 41032ft 481kts
21-Sep-20 07:15 55.046636 3.157065 152 41032ft 478kts
21-Sep-20 07:16 54.925682 3.257638 157 41034ft 490kts
21-Sep-20 07:17 54.801659 3.337551 155 41033ft 469kts
21-Sep-20 07:18 54.679806 3.415882 155 41032ft 469kts
21-Sep-20 07:19 54.567689 3.524521 142 41032ft 463kts
21-Sep-20 07:20 54.460342 3.647081 143 41036ft 463kts
21-Sep-20 07:21 54.352867 3.767944 144 41052ft 464kts
21-Sep-20 07:22 54.244915 3.888021 144 41058ft 464kts
21-Sep-20 07:23 54.136482 4.007745 144 41057ft 464kts
21-Sep-20 07:24 54.028616 4.126095 144 41058ft 464kts
21-Sep-20 07:25 53.920036 4.244446 144 41058ft 464kts
21-Sep-20 07:26 53.811475 4.361560 144 41057ft 464kts
21-Sep-20 07:27 53.702965 4.478171 144 41058ft 463kts
21-Sep-20 07:28 53.594541 4.594175 144 41059ft 464kts
21-Sep-20 07:29 53.485887 4.709965 144 41058ft 464kts
21-Sep-20 07:30 53.377036 4.825273 144 41058ft 464kts
21-Sep-20 07:31 53.267892 4.939948 144 41058ft 465kts
21-Sep-20 07:32 53.158540 5.054103 144 41058ft 465kts
21-Sep-20 07:33 53.048879 5.167840 144 41059ft 461kts
21-Sep-20 07:34 52.941033 5.279045 144 41059ft 453kts
21-Sep-20 07:35 52.834091 5.388368 144 41048ft 453kts
21-Sep-20 07:36 52.726622 5.497628 144 41036ft 453kts
21-Sep-20 07:37 52.619526 5.606099 144 41035ft 453kts
21-Sep-20 07:38 52.512210 5.714469 144 41040ft 453kts
21-Sep-20 07:39 52.404816 5.822197 144 41035ft 453kts
21-Sep-20 07:40 52.297272 5.929205 144 41026ft 453kts
21-Sep-20 07:41 52.189735 6.035479 144 41011ft 453kts
21-Sep-20 07:42 52.081616 6.141450 145 41006ft 453kts
21-Sep-20 07:43 51.974205 6.248479 141 41004ft 451kts
21-Sep-20 07:44 51.876213 6.373616 137 41005ft 449kts
21-Sep-20 07:45 51.778939 6.499570 137 41005ft 449kts
21-Sep-20 07:47 51.681496 6.625571 137 41005ft 449kts
21-Sep-20 07:48 51.583939 6.751421 138 41005ft 450kts
21-Sep-20 07:49 51.485944 6.876788 138 41006ft 454kts
21-Sep-20 07:50 51.385453 7.004194 138 41005ft 465kts
21-Sep-20 07:51 51.283471 7.129815 141 41005ft 466kts
21-Sep-20 07:52 51.169381 7.231119 149 41005ft 470kts
21-Sep-20 07:53 51.056314 7.332923 144 41005ft 467kts
21-Sep-20 07:54 50.945187 7.440810 146 41001ft 470kts
21-Sep-20 07:55 50.833879 7.547487 147 40547ft 470kts
21-Sep-20 07:56 50.717696 7.640383 155 39117ft 488kts
21-Sep-20 07:57 50.590069 7.725051 156 39056ft 504kts
21-Sep-20 07:58 50.462247 7.814283 150 39059ft 504kts
21-Sep-20 07:59 50.348111 7.936359 141 38259ft 487kts
21-Sep-20 08:00 50.245867 8.061814 140 36809ft 456kts
21-Sep-20 08:01 50.147326 8.186175 140 33933ft 460kts
21-Sep-20 08:02 50.061653 8.332192 115 30683ft 465kts
21-Sep-20 08:02 50.040525 8.495918 86 29826ft 471kts
21-Sep-20 08:04 50.076163 8.728025 71 27998ft 478kts
21-Sep-20 08:05 50.120445 8.920260 71 25196ft 463kts
21-Sep-20 08:05 50.133686 9.078183 109 23325ft 440kts
21-Sep-20 08:07 50.027728 9.192760 182 20900ft 418kts
21-Sep-20 08:07 49.945736 9.125300 232 19202ft 411kts
21-Sep-20 08:08 49.933738 8.957995 292 17136ft 406kts
21-Sep-20 08:10 49.984486 8.773435 275 14799ft 393kts
21-Sep-20 08:10 49.963999 8.639828 248 13140ft 382kts
21-Sep-20 08:11 49.926345 8.487816 248 11257ft 369kts
21-Sep-20 08:12 49.892628 8.348989 248 10499ft 307kts
21-Sep-20 08:13 49.864308 8.231446 253 10085ft 289kts
21-Sep-20 08:14 49.899054 8.140785 350 9039ft 249kts
21-Sep-20 08:15 49.949261 8.181047 85 7164ft 228kts
21-Sep-20 08:16 49.965148 8.270602 68 5344ft 211kts
21-Sep-20 08:17 49.984593 8.351512 69 3732ft 180kts
21-Sep-20 08:18 50.001252 8.422652 69 1910ft 167kts
21-Sep-20 08:19 50.014936 8.481430 69 1130ft 146kts
21-Sep-20 08:20 50.029019 8.540289 69 381ft 136kts
21-Sep-20 08:21 50.036104 8.569570 57 376ft 35kts
21-Sep-20 08:22 50.040533 8.578116 69 376ft 22kts
21-Sep-20 08:23 50.042869 8.588030 68 376ft 26kts
21-Sep-20 08:24 50.045268 8.596296 355 376ft 12kts
21-Sep-20 08:25 50.049233 8.593898 333 376ft 19kts
21-Sep-20 08:26 50.049861 8.588247 249 376ft 16kts
21-Sep-20 08:27 50.048811 8.583527 307 376ft 2kts
21-Sep-20 08:28 50.049535 8.582946 339 376ft 0kts
21-Sep-20 08:29 50.049538 8.582945 339 376ft 0kts
21-Sep-20 08:30 50.049538 8.582945 339 376ft 0kts

Navigation Log

Ident Type
Flight plan parsing failed, navigation log unavailable